Time;durP1;ratioP1;P1;durP2;ratioP2;P2;SDS_P1;SDS_P2;PMS_P1;PMS_P2;Temp;Humidity;BMP_temperature;BMP_pressure;BME280_temperature;BME280_humidity;BME280_pressure;Samples;Min_cycle;Max_cycle;Signal;HPM_P1;HPM_P2
2022/08/30 00:06:50;;;;;;;11.32;5.28;;;27.90;37.40;;;;;;20913346;28;20424;-59
2022/08/30 00:16:53;;;;;;;10.60;5.20;;;28.10;37.60;;;;;;20911584;28;20449;-60
2022/08/30 00:26:54;;;;;;;13.82;5.47;;;28.00;38.10;;;;;;20910360;28;20049;-58
2022/08/30 00:36:56;;;;;;;13.50;4.80;;;27.90;38.50;;;;;;20910778;28;20110;-59
2022/08/30 00:46:58;;;;;;;12.30;5.43;;;27.90;38.40;;;;;;20909870;28;20057;-57
2022/08/30 00:56:59;;;;;;;12.75;4.97;;;27.80;38.30;;;;;;20922795;28;20041;-59
2022/08/30 01:07:01;;;;;;;15.70;5.38;;;27.70;38.70;;;;;;20924762;28;20049;-57
2022/08/30 01:17:04;;;;;;;15.82;5.35;;;27.60;39.10;;;;;;20924056;28;20052;-57
2022/08/30 01:27:08;;;;;;;15.60;6.07;;;27.50;39.40;;;;;;20923430;28;20405;-58
2022/08/30 01:37:12;;;;;;;12.40;5.63;;;27.40;39.50;;;;;;20922519;28;20049;-58
2022/08/30 01:47:17;;;;;;;11.13;5.32;;;27.20;39.70;;;;;;20921642;28;20048;-56
2022/08/30 01:57:21;;;;;;;15.70;6.70;;;27.20;39.90;;;;;;20920585;28;20063;-57
2022/08/30 02:07:24;;;;;;;11.13;4.50;;;27.00;40.80;;;;;;20918844;28;20056;-57
2022/08/30 02:17:26;;;;;;;9.45;3.97;;;26.60;42.60;;;;;;20919139;28;20088;-59
2022/08/30 02:27:31;;;;;;;8.05;3.40;;;26.10;41.60;;;;;;20918900;28;20415;-57
2022/08/30 02:37:37;;;;;;;8.75;3.63;;;25.60;41.90;;;;;;20918926;28;20119;-56
2022/08/30 02:47:39;;;;;;;9.00;3.78;;;25.40;42.70;;;;;;20916924;28;20511;-56
2022/08/30 02:57:43;;;;;;;6.50;4.15;;;25.20;43.00;;;;;;20916548;28;20045;-57
2022/08/30 03:07:46;;;;;;;9.90;3.90;;;25.10;43.40;;;;;;20916608;28;20508;-59
2022/08/30 03:17:49;;;;;;;11.52;4.03;;;24.90;43.00;;;;;;20915687;28;20045;-57
2022/08/30 03:27:51;;;;;;;9.70;4.28;;;24.70;42.50;;;;;;20913907;28;20049;-58
2022/08/30 03:37:55;;;;;;;9.88;3.90;;;24.70;42.50;;;;;;20913930;28;20056;-58
2022/08/30 03:47:58;;;;;;;11.23;4.25;;;24.70;42.40;;;;;;20912964;28;20064;-58
2022/08/30 03:58:00;;;;;;;6.40;3.97;;;24.50;42.10;;;;;;20912729;28;20052;-59
2022/08/30 04:08:03;;;;;;;8.13;4.00;;;24.40;42.60;;;;;;20912818;28;20490;-57
2022/08/30 04:18:05;;;;;;;7.95;4.03;;;24.30;43.00;;;;;;20913193;28;20132;-58
2022/08/30 04:28:08;;;;;;;12.55;4.25;;;24.20;43.10;;;;;;20918070;28;20056;-57
2022/08/30 04:38:14;;;;;;;9.65;3.55;;;24.20;42.90;;;;;;20928025;28;20139;-57
2022/08/30 04:48:17;;;;;;;13.85;4.07;;;24.10;43.20;;;;;;20932935;28;20084;-58
2022/08/30 04:58:19;;;;;;;7.95;4.60;;;24.00;43.10;;;;;;20929749;28;20049;-61
2022/08/30 05:08:22;;;;;;;10.80;4.10;;;23.80;43.10;;;;;;20925486;28;20073;-60
2022/08/30 05:18:23;;;;;;;9.90;4.43;;;23.80;43.90;;;;;;20925317;28;20433;-59
2022/08/30 05:28:26;;;;;;;;;;;23.90;43.80;;;;;;20926188;28;20549;-59
2022/08/30 05:38:28;;;;;;;12.40;4.47;;;23.90;43.70;;;;;;20923279;28;20342;-60
2022/08/30 05:48:30;;;;;;;14.07;5.40;;;24.00;44.10;;;;;;20921972;28;20428;-60
2022/08/30 05:58:35;;;;;;;13.63;7.50;;;23.90;44.10;;;;;;20921425;28;20061;-59
2022/08/30 06:08:36;;;;;;;14.88;4.90;;;24.10;44.10;;;;;;20920316;28;20060;-61
2022/08/30 06:18:38;;;;;;;12.90;4.90;;;24.10;44.00;;;;;;20919604;28;20049;-60
2022/08/30 06:28:40;;;;;;;20.43;4.77;;;24.00;44.30;;;;;;20919309;28;20159;-60
2022/08/30 06:38:41;;;;;;;11.17;4.70;;;24.20;44.20;;;;;;20918034;28;20060;-60
2022/08/30 06:48:43;;;;;;;15.07;5.53;;;24.20;44.30;;;;;;20916576;28;20045;-62
2022/08/30 06:58:45;;;;;;;20.73;5.30;;;24.30;43.80;;;;;;20915459;28;20049;-57
2022/08/30 07:08:49;;;;;;;14.25;4.43;;;24.20;43.30;;;;;;20914888;28;20052;-57
2022/08/30 07:18:54;;;;;;;13.05;5.68;;;24.40;43.10;;;;;;20913515;28;20151;-57
2022/08/30 07:28:56;;;;;;;18.08;5.60;;;24.60;42.70;;;;;;20914998;28;20052;-58
2022/08/30 07:38:58;;;;;;;;;;;25.10;42.50;;;;;;20915230;28;20064;-58
2022/08/30 07:49:00;;;;;;;24.10;5.83;;;25.70;42.10;;;;;;20912441;28;19963;-59
2022/08/30 07:59:03;;;;;;;19.85;5.55;;;25.90;41.50;;;;;;20911646;28;20053;-57
2022/08/30 08:09:05;;;;;;;15.40;5.45;;;26.40;40.70;;;;;;20912166;28;20175;-58
2022/08/30 08:19:07;;;;;;;15.85;5.05;;;26.90;39.30;;;;;;20910143;28;20053;-58
2022/08/30 08:29:09;;;;;;;21.10;7.20;;;27.20;38.90;;;;;;20909139;28;20049;-57
2022/08/30 08:39:11;;;;;;;18.67;6.03;;;27.40;38.30;;;;;;20910169;28;20053;-59
2022/08/30 08:49:13;;;;;;;18.02;5.40;;;27.60;38.30;;;;;;20909547;28;20063;-59
2022/08/30 08:59:16;;;;;;;15.23;5.57;;;27.90;37.80;;;;;;20910040;28;20056;-58
2022/08/30 09:09:23;;;;;;;19.77;5.63;;;28.20;36.40;;;;;;20909730;28;20049;-58
2022/08/30 09:19:45;;;;;;;19.67;5.60;;;28.50;36.10;;;;;;20926413;28;20056;-56
2022/08/30 09:29:56;;;;;;;14.82;4.28;;;28.70;35.20;;;;;;21006702;28;20067;-57
2022/08/30 09:40:01;;;;;;;10.23;2.97;;;29.00;34.60;;;;;;21006001;28;20056;-58
2022/08/30 09:50:19;;;;;;;9.35;3.40;;;29.40;34.30;;;;;;21006113;28;20047;-59
2022/08/30 10:00:27;;;;;;;17.88;4.35;;;29.60;38.30;;;;;;21004852;28;20044;-57
2022/08/30 10:10:35;;;;;;;16.83;5.18;;;29.60;39.10;;;;;;21004478;28;20045;-55
2022/08/30 10:21:14;;;;;;;15.95;5.32;;;29.70;40.70;;;;;;21004723;28;20492;-55
2022/08/30 10:31:32;;;;;;;14.18;4.40;;;29.90;40.60;;;;;;21003076;28;20049;-55
2022/08/30 10:41:41;;;;;;;13.85;4.13;;;30.10;39.20;;;;;;21001546;28;20135;-57
2022/08/30 10:51:52;;;;;;;14.43;4.10;;;30.10;37.20;;;;;;21001867;28;20041;-58
2022/08/30 11:02:24;;;;;;;18.00;5.30;;;30.20;36.20;;;;;;21000554;28;20052;-56
2022/08/30 11:12:31;;;;;;;20.23;4.07;;;30.40;35.80;;;;;;20998372;28;20127;-57
2022/08/30 11:22:36;;;;;;;9.00;3.28;;;30.70;31.40;;;;;;20997531;28;20131;-55
2022/08/30 11:33:14;;;;;;;11.30;3.75;;;30.70;31.40;;;;;;20995359;28;20067;-55
2022/08/30 11:43:35;;;;;;;11.35;3.13;;;30.90;32.20;;;;;;20997185;28;20052;-57
2022/08/30 11:53:45;;;;;;;;;;;31.10;29.60;;;;;;20997154;28;20074;-58
2022/08/30 12:04:08;;;;;;;9.07;2.63;;;31.20;30.60;;;;;;20996660;28;19927;-58
2022/08/30 12:14:38;;;;;;;9.50;2.70;;;31.60;27.30;;;;;;20995562;28;20125;-59
2022/08/30 12:24:42;;;;;;;9.47;3.30;;;31.80;30.60;;;;;;20995468;28;20044;-60
2022/08/30 12:34:44;;;;;;;14.82;6.40;;;32.10;28.80;;;;;;20996262;28;20056;-60
2022/08/30 12:44:48;;;;;;;8.55;2.78;;;32.20;26.10;;;;;;20994434;28;20052;-62
2022/08/30 12:54:51;;;;;;;9.35;2.22;;;32.50;26.20;;;;;;21010666;28;20055;-59
2022/08/30 13:04:54;;;;;;;6.57;2.70;;;32.60;25.30;;;;;;21010139;28;20052;-59
2022/08/30 13:15:25;;;;;;;10.68;3.40;;;32.60;25.40;;;;;;21007829;28;20049;-61
2022/08/30 13:25:47;;;;;;;9.43;3.00;;;32.80;24.20;;;;;;21007279;28;20094;-58
2022/08/30 13:35:48;;;;;;;9.45;2.78;;;33.00;22.60;;;;;;20998239;28;20060;-57
2022/08/30 13:45:50;;;;;;;6.43;2.28;;;33.10;23.50;;;;;;20997170;28;20084;-57
2022/08/30 13:55:51;;;;;;;7.57;2.63;;;33.20;21.70;;;;;;20996975;28;20084;-56
2022/08/30 14:05:55;;;;;;;9.95;2.92;;;33.40;20.80;;;;;;20984962;28;20045;-58
2022/08/30 14:16:02;;;;;;;5.00;1.50;;;33.60;18.80;;;;;;21004130;28;20052;-58
2022/08/30 14:26:10;;;;;;;7.90;2.95;;;33.70;18.80;;;;;;21002121;28;20488;-57
2022/08/30 14:36:12;;;;;;;10.07;1.90;;;33.60;20.10;;;;;;21000752;28;20060;-57
2022/08/30 14:46:13;;;;;;;5.22;1.73;;;33.60;20.80;;;;;;20999794;28;20489;-57
2022/08/30 14:56:18;;;;;;;9.93;2.15;;;33.60;21.10;;;;;;20998643;28;20413;-56
2022/08/30 15:06:19;;;;;;;7.30;2.13;;;33.80;19.80;;;;;;20998285;28;20087;-58
2022/08/30 15:16:26;;;;;;;9.05;2.05;;;33.80;20.20;;;;;;20996771;28;20084;-57
2022/08/30 15:26:29;;;;;;;7.00;2.20;;;34.00;20.30;;;;;;20997714;28;20071;-55
2022/08/30 15:36:31;;;;;;;7.40;1.83;;;33.90;20.50;;;;;;20997049;28;20235;-55
2022/08/30 15:46:36;;;;;;;6.65;2.10;;;33.90;20.40;;;;;;20996976;28;20500;-57
2022/08/30 15:56:38;;;;;;;4.10;1.60;;;33.90;20.10;;;;;;20996244;28;20171;-57
2022/08/30 16:06:39;;;;;;;8.18;2.05;;;33.80;20.30;;;;;;20996905;28;20101;-55
2022/08/30 16:16:41;;;;;;;9.45;1.92;;;33.90;19.00;;;;;;20994370;28;20169;-57
2022/08/30 16:26:42;;;;;;;6.38;1.63;;;33.80;19.20;;;;;;20993281;28;20063;-59
2022/08/30 16:36:45;;;;;;;7.15;2.03;;;33.80;19.00;;;;;;20994732;28;20048;-59
2022/08/30 16:46:47;;;;;;;6.82;2.15;;;33.80;19.20;;;;;;20993042;28;20044;-60
2022/08/30 16:56:50;;;;;;;6.32;1.67;;;33.70;19.60;;;;;;20993857;28;20404;-58
2022/08/30 17:06:51;;;;;;;7.82;3.15;;;33.60;18.20;;;;;;20993572;28;20449;-60
2022/08/30 17:16:53;;;;;;;9.52;2.13;;;33.50;18.60;;;;;;20992836;28;20101;-60
2022/08/30 17:26:55;;;;;;;7.07;2.83;;;33.30;18.80;;;;;;20993076;28;20045;-56
2022/08/30 17:36:58;;;;;;;5.10;2.05;;;33.20;18.80;;;;;;21000492;28;20055;-58
2022/08/30 17:47:00;;;;;;;5.50;2.10;;;33.10;19.00;;;;;;21005197;28;20052;-57
2022/08/30 17:57:06;;;;;;;6.88;2.10;;;32.90;19.60;;;;;;21003990;28;20432;-57
2022/08/30 18:07:13;;;;;;;5.78;1.67;;;32.80;20.50;;;;;;21004916;28;20048;-60
2022/08/30 18:17:15;;;;;;;6.18;2.55;;;32.60;20.60;;;;;;21003531;28;20056;-56
2022/08/30 18:27:17;;;;;;;7.00;2.17;;;32.30;21.20;;;;;;21002396;28;20504;-59
2022/08/30 18:37:19;;;;;;;5.68;2.00;;;32.10;21.20;;;;;;21002121;28;20052;-60
2022/08/30 18:47:22;;;;;;;7.03;2.53;;;32.10;21.30;;;;;;20999642;28;20060;-58
2022/08/30 18:57:23;;;;;;;6.93;2.78;;;31.90;21.60;;;;;;20999074;28;20048;-57
2022/08/30 19:07:25;;;;;;;7.18;2.80;;;31.70;21.60;;;;;;20998093;28;20044;-60
2022/08/30 19:17:27;;;;;;;7.95;2.63;;;31.60;21.50;;;;;;20997114;28;20094;-58
2022/08/30 19:27:28;;;;;;;6.82;2.33;;;31.50;21.80;;;;;;20997458;28;20413;-57
2022/08/30 19:37:30;;;;;;;8.80;2.53;;;31.30;22.30;;;;;;20996426;28;20048;-57
2022/08/30 19:47:32;;;;;;;7.28;2.13;;;31.20;22.80;;;;;;20995582;28;20583;-57
2022/08/30 19:57:34;;;;;;;7.28;3.00;;;31.10;22.50;;;;;;20994946;28;20049;-59
2022/08/30 20:07:36;;;;;;;7.22;3.03;;;31.00;22.90;;;;;;20994565;28;20135;-57
2022/08/30 20:17:38;;;;;;;7.43;2.97;;;30.90;23.00;;;;;;20993573;28;20055;-57
2022/08/30 20:27:40;;;;;;;5.97;4.05;;;30.80;23.80;;;;;;20992922;28;20048;-60
2022/08/30 20:37:43;;;;;;;7.50;3.05;;;30.60;23.90;;;;;;20995581;28;20455;-57
2022/08/30 20:47:45;;;;;;;6.97;2.60;;;30.60;23.40;;;;;;20993344;28;20052;-57
2022/08/30 20:57:46;;;;;;;8.02;2.80;;;30.50;23.40;;;;;;20994187;28;20469;-59
2022/08/30 21:07:48;;;;;;;56.33;39.65;;;30.40;23.50;;;;;;20997751;28;20049;-57
2022/08/30 21:17:50;;;;;;;4.90;2.00;;;30.40;23.10;;;;;;21008718;28;20052;-60
2022/08/30 21:27:52;;;;;;;4.88;2.55;;;30.30;23.30;;;;;;21006238;28;20476;-57
2022/08/30 21:37:54;;;;;;;5.15;2.05;;;30.10;23.40;;;;;;21007200;28;20457;-60
2022/08/30 21:47:55;;;;;;;9.48;6.30;;;30.00;23.40;;;;;;21006317;28;20461;-56
2022/08/30 21:57:59;;;;;;;8.65;3.75;;;29.90;24.20;;;;;;21005734;28;20056;-59
2022/08/30 22:08:02;;;;;;;8.80;2.30;;;29.80;24.70;;;;;;21004759;28;20489;-58
2022/08/30 22:18:04;;;;;;;5.97;2.38;;;29.70;23.90;;;;;;21002851;28;20064;-58
2022/08/30 22:28:07;;;;;;;8.32;2.60;;;29.60;24.20;;;;;;21002662;28;20127;-58
2022/08/30 22:38:10;;;;;;;7.30;3.00;;;29.60;24.50;;;;;;21002470;28;20056;-57
2022/08/30 22:48:12;;;;;;;9.43;2.83;;;29.60;25.00;;;;;;21001632;28;20140;-57
2022/08/30 22:58:17;;;;;;;8.43;2.25;;;29.40;25.50;;;;;;21001843;28;20186;-60
2022/08/30 23:08:19;;;;;;;7.15;2.47;;;29.40;25.90;;;;;;20998318;28;20052;-57
2022/08/30 23:18:21;;;;;;;6.82;2.35;;;29.30;25.80;;;;;;20998822;28;20432;-60
